N5DUP Weather Reports


Display with metric or nautical units.
time (UTC)temp
F
wind
direction
speed
MPH
gust
MPH
rain 1hr
in
rain 24hr
in
rain mn
in
humidity
%
barometer
mb
20200806080316 80 130 5.0 15.0 0.00 0.00 0.00 47 1013.8
20200806074818 81 117 6.0 14.0 0.00 0.00 0.00 46 1013.8
20200806073327 81 132 6.0 12.0 0.00 0.00 0.00 45 1013.7
20200806071826 82 121 6.0 14.0 0.00 0.00 0.00 44 1013.7
20200806070328 82 122 5.0 13.0 0.00 0.00 0.00 43 1013.7
20200806064816 83 117 5.0 11.0 0.00 0.00 0.00 42 1013.7
20200806063325 83 131 5.0 13.0 0.00 0.00 0.00 41 1013.7
20200806061828 84 123 5.0 12.0 0.00 0.00 0.00 40 1013.7
20200806060336 84 128 5.0 13.0 0.00 0.00 0.00 39 1013.7
20200806054834 84 117 6.0 14.0 0.00 0.00 0.00 39 1013.7
20200806053321 83 121 4.0 10.0 0.00 0.00 0.00 39 1013.6
20200806051823 84 123 3.0 9.0 0.00 0.00 0.00 38 1013.7
20200806050329 84 123 2.0 8.0 0.00 0.00 0.00 37 1013.8
20200806044824 85 120 2.0 6.0 0.00 0.00 0.00 36 1013.6
20200806043317 86 120 3.0 7.0 0.00 0.00 0.00 34 1013.5
20200806041825 87 119 4.0 11.0 0.00 0.00 0.00 33 1013.4
20200806040322 88 122 4.0 12.0 0.00 0.00 0.00 32 1013.3
20200806034823 87 126 5.0 10.0 0.00 0.00 0.00 32 1013.2
20200806033330 87 124 2.0 4.0 0.00 0.00 0.00 33 1013.2
20200806031817 88 124 1.0 4.0 0.00 0.00 0.00 32 1013.0
20200806030325 88 124 1.0 4.0 0.00 0.00 0.00 31 1012.9
20200806024833 89 125 2.0 6.0 0.00 0.00 0.00 30 1012.5
20200806023322 90 128 0.0 2.0 0.00 0.00 0.00 31 1012.4
20200806021831 91 128 0.0 2.0 0.00 0.00 0.00 29 1012.3
20200806020319 93 128 0.0 4.0 0.00 0.00 0.00 26 1012.1
20200806014824 94 128 1.0 5.0 0.00 0.00 0.00 25 1012.0
20200806013334 95 128 0.0 5.0 0.00 0.00 0.00 25 1011.9
20200806011826 96 128 1.0 8.0 0.00 0.00 0.00 23 1011.8
20200806010333 98 117 1.0 6.0 0.00 0.00 0.00 22 1011.7
20200806004817 99 117 1.0 6.0 0.00 0.00 0.00 22 1011.6
20200806003323 99 130 2.0 8.0 0.00 0.00 0.00 21 1011.5
20200806001820 100 55 2.0 8.0 0.00 0.00 0.00 20 1011.5
20200806000327 101 155 2.0 8.0 0.00 0.00 0.00 20 1011.6
20200805234832 101 145 3.0 9.0 0.00 0.00 0.00 20 1011.7
20200805233317 101 95 1.0 12.0 0.00 0.00 0.00 20 1011.9
20200805231824 102 115 4.0 11.0 0.00 0.00 0.00 20 1012.0
20200805230332 102 123 5.0 13.0 0.00 0.00 0.00 19 1012.2
20200805224819 102 115 6.0 15.0 0.00 0.00 0.00 19 1012.3
20200805223326 102 125 2.0 10.0 0.00 0.00 0.00 20 1012.3
20200805221832 102 138 4.0 10.0 0.00 0.00 0.00 20 1012.6
20200805220316 102 131 2.0 8.0 0.00 0.00 0.00 21 1012.8
20200805214823 102 156 2.0 14.0 0.00 0.00 0.00 21 1013.0
20200805213329 102 122 3.0 12.0 0.00 0.00 0.00 22 1013.0
20200805211833 101 189 1.0 10.0 0.00 0.00 0.00 24 1013.1
20200805210317 100 157 2.0 9.0 0.00 0.00 0.00 24 1013.3
20200805204816 100 19 2.0 9.0 0.00 0.00 0.00 27 1013.7
20200805203323 99 15 4.0 11.0 0.00 0.00 0.00 27 1013.8
20200805201824 99 134 6.0 16.0 0.00 0.00 0.00 27 1014.1
20200805200323 98 159 4.0 10.0 0.00 0.00 0.00 28 1014.3
20200805194818 97 139 4.0 14.0 0.00 0.00 0.00 30 1014.4
20200805193324 97 142 6.0 15.0 0.00 0.00 0.00 30 1014.7
20200805191821 95 132 5.0 13.0 0.00 0.00 0.00 33 1014.8
20200805190326 92 139 5.0 13.0 0.00 0.00 0.00 34 1015.0
20200805184829 92 114 7.0 15.0 0.00 0.00 0.00 35 1015.3
20200805183316 94 130 8.0 14.0 0.00 0.00 0.00 34 1015.5
20200805181820 93 119 7.0 11.0 0.00 0.00 0.00 36 1015.9
20200805180327 92 113 5.0 13.0 0.00 0.00 0.00 36 1016.2
20200805174832 93 121 4.0 13.0 0.00 0.00 0.00 35 1016.5
20200805173315 91 130 3.0 10.0 0.00 0.00 0.00 38 1016.7
20200805171818 90 15 3.0 11.0 0.00 0.00 0.00 40 1017.0
20200805170325 89 340 4.0 8.0 0.00 0.00 0.00 41 1017.2
20200805164832 88 17 6.0 11.0 0.00 0.00 0.00 41 1017.3
20200805163319 88 336 4.0 8.0 0.00 0.00 0.00 43 1017.6
20200805161825 88 325 4.0 8.0 0.00 0.00 0.00 42 1017.8
20200805160332 88 328 4.0 10.0 0.00 0.00 0.00 42 1017.8
20200805154818 87 319 2.0 9.0 0.00 0.00 0.00 43 1017.6
20200805153323 87 265 3.0 6.0 0.00 0.00 0.00 43 1017.6
20200805151830 87 259 4.0 6.0 0.00 0.00 0.00 44 1017.5
20200805150315 85 242 1.0 3.0 0.00 0.00 0.00 47 1017.4
20200805144818 84 242 3.0 5.0 0.00 0.00 0.00 47 1017.6
20200805143324 83 235 1.0 5.0 0.00 0.00 0.00 48 1017.5
20200805141819 82 234 2.0 8.0 0.00 0.00 0.00 51 1017.6
20200805140326 81 232 3.0 7.0 0.00 0.00 0.00 53 1017.7
20200805134826 79 250 4.0 7.0 0.00 0.00 0.00 55 1017.7
20200805133332 79 269 3.0 8.0 0.00 0.00 0.00 56 1017.4
20200805131817 78 123 3.0 11.0 0.00 0.00 0.00 57 1016.1
20200805130319 77 126 5.0 10.0 0.00 0.00 0.00 57 1015.6
20200805124823 77 123 4.0 13.0 0.00 0.00 0.00 58 1015.4
20200805123319 77 128 5.0 10.0 0.00 0.00 0.00 56 1015.4
20200805121820 77 136 4.0 12.0 0.00 0.00 0.00 55 1015.3
20200805120326 77 121 4.0 10.0 0.00 0.00 0.00 55 1015.0
20200805114832 77 130 5.0 9.0 0.00 0.00 0.00 55 1014.9
20200805113322 78 128 5.0 11.0 0.00 0.00 0.00 54 1014.6
20200805111827 78 135 5.0 13.0 0.00 0.00 0.00 54 1014.4
20200805110333 78 130 5.0 10.0 0.00 0.00 0.00 53 1014.4
20200805104817 78 132 6.0 15.0 0.00 0.00 0.00 52 1014.2
20200805103323 78 140 5.0 9.0 0.00 0.00 0.00 52 1014.1
20200805101832 79 134 5.0 11.0 0.00 0.00 0.00 52 1014.2
20200805100329 79 135 5.0 9.0 0.00 0.00 0.00 52 1014.1
20200805094835 79 131 5.0 10.0 0.00 0.00 0.00 52 1014.1
20200805093320 79 128 6.0 15.0 0.00 0.00 0.00 51 1014.1
20200805091823 79 129 6.0 14.0 0.00 0.00 0.00 51 1014.0
20200805090332 79 138 6.0 16.0 0.00 0.00 0.00 51 1014.0
20200805084820 79 122 6.0 13.0 0.00 0.00 0.00 50 1013.8
20200805083315 80 128 5.0 15.0 0.00 0.00 0.00 49 1013.8
20200805081816 80 130 6.0 17.0 0.00 0.00 0.00 49 1013.8